• Join FlightAware (Why Join?)
  • Login
  • US Flag GB Flag 
17:49 EDT


 

Airport Tracker/Info


-or-


 

Live Flight TrackerFlight Track Log ✈ UAL5848 ✈ 16-Apr-2013 ✈ KSAV - KORD

Flight Track Log - Related Links

Times and Time Zones

All times are in EDT time to prevent confusion due to time zone crossing. See the UAL5848 flight status page for this flight to view local times or setup timezone preferences in your user account.

Time Position Orientation Groundspeed Altitude Reporting Facility
EDT Latitude Longitude Course Direction KTS MPH feet Rate Location/Type
11:46 32.1289 -81.1017 North 194 223 3,700  Level Jacksonville Center
11:47 32.1764 -81.0689 30° Northeast 220 253 5,600 1,620 Climbing Jacksonville Center
11:48 32.2450 -81.0603 North 260 299 7,000 1,620 Climbing Jacksonville Center
11:49 32.3142 -81.0636 358° North 265 305 8,900 1,800 Climbing Jacksonville Center
11:50 32.3939 -81.1039 337° Northwest 265 305 10,700 1,440 Climbing Jacksonville Center
11:51 32.6495 -81.1500 North  Level FlightAware Approximate
11:51 32.4678 -81.1467 334° Northwest 286 329 11,800  Level Jacksonville Center
11:52 32.7393 -81.1451 North  Level FlightAware Approximate
11:52 32.5619 -81.1647 351° North 318 366 12,900  Level Jacksonville Center
11:53 32.6578 -81.1653 360° North 343 395 13,800 900 Climbing Jacksonville Center
11:54 32.7461 -81.2156 334° Northwest 343 395 14,700 900 Climbing Jacksonville Center
11:55 32.8367 -81.2731 332° Northwest 352 405 15,700 960 Climbing Jacksonville Center
11:56 32.9411 -81.2761 359° North 358 412 16,700 960 Climbing Jacksonville Center
11:57 33.0453 -81.2494 12° North 364 419 17,700 840 Climbing Jacksonville Center
11:58 33.1514 -81.2228 12° North 369 425 18,400 840 Climbing Jacksonville Center
11:59 33.2517 -81.2383 353° North 360 414 19,400 900 Climbing Jacksonville Center
12:00 33.3464 -81.2936 334° Northwest 354 407 20,300 900 Climbing Jacksonville Center
12:01 33.4408 -81.3469 335° Northwest 366 421 21,300 900 Climbing Jacksonville Center
12:02 33.5292 -81.3900 338° Northwest 381 438 22,200 900 Climbing Jacksonville Center
12:04 33.7283 -81.4961 336° Northwest 368 423 24,000 600 Climbing Atlanta Center
12:05 33.8294 -81.5506 336° Northwest 378 435 24,000  Level Atlanta Center
12:06 33.9267 -81.6053 335° Northwest 406 467 24,000  Level Atlanta Center
12:07 34.0322 -81.6600 337° Northwest 411 473 24,000  Level Atlanta Center
12:08 34.1461 -81.7219 336° Northwest 426 490 24,000  Level Atlanta Center
12:09 34.2578 -81.7819 336° Northwest 431 496 24,000  Level Atlanta Center
12:10 34.3694 -81.8442 335° Northwest 431 496 24,000  Level Atlanta Center
12:11 34.4811 -81.9019 337° Northwest 436 502 24,000  Level Atlanta Center
12:12 34.5947 -81.9644 336° Northwest 441 507 24,000  Level Atlanta Center
12:13 34.7064 -82.0250 336° Northwest 441 507 24,000  Level Atlanta Center
12:14 34.8181 -82.0906 334° Northwest 441 507 24,000  Level Atlanta Center
12:15 34.9317 -82.1539 335° Northwest 447 514 24,000  Level Atlanta Center
12:16 35.0433 -82.2147 336° Northwest 442 509 24,000  Level Atlanta Center
12:17 35.1528 -82.2733 336° Northwest 437 503 24,000  Level Atlanta Center
12:18 35.2642 -82.3369 335° Northwest 437 503 24,000  Level Atlanta Center
12:19 35.3861 -82.4033 336° Northwest 437 503 24,000  Level Atlanta Center
12:20 35.4975 -82.4675 335° Northwest 442 509 24,000  Level Atlanta Center
12:21 35.6108 -82.5317 335° Northwest 442 509 24,000  Level Atlanta Center
12:22 35.7181 -82.5883 337° Northwest 435 501 24,000  Level Atlanta Center
12:23 35.8294 -82.6506 336° Northwest 430 495 24,000  Level Atlanta Center
12:24 35.9383 -82.7128 335° Northwest 430 495 24,000  Level Atlanta Center
12:25 36.0497 -82.7778 335° Northwest 430 495 24,000  Level Atlanta Center
12:26 36.1608 -82.8403 336° Northwest 430 495 24,000  Level Atlanta Center
12:28 36.3458 -82.9442 336° Northwest 440 506 24,000  Level Indianapolis Center
12:29 36.4583 -83.0092 335° Northwest 442 509 24,000  Level Indianapolis Center
12:30 36.5717 -83.0733 336° Northwest 443 510 24,000  Level Indianapolis Center
12:31 36.6839 -83.1403 334° Northwest 438 504 24,000  Level Indianapolis Center
12:32 36.7961 -83.2050 335° Northwest 441 507 24,000  Level Indianapolis Center
12:33 36.9089 -83.2708 335° Northwest 441 507 24,000  Level Indianapolis Center
12:34 37.0208 -83.3361 335° Northwest 439 505 24,000  Level Indianapolis Center
12:35 37.1331 -83.4011 335° Northwest 440 506 24,000  Level Indianapolis Center
12:36 37.2425 -83.4675 334° Northwest 435 501 24,000  Level Indianapolis Center
12:37 37.3503 -83.5392 332° Northwest 435 501 24,000  Level Indianapolis Center
12:38 37.4753 -83.6206 333° Northwest 433 498 24,000  Level Indianapolis Center
12:39 37.5825 -83.6897 333° Northwest 433 498 24,000  Level Indianapolis Center
12:40 37.6894 -83.7606 332° Northwest 432 497 24,000  Level Indianapolis Center
12:41 37.7969 -83.8300 333° Northwest 431 496 24,000  Level Indianapolis Center
12:42 37.9042 -83.9003 333° Northwest 434 499 24,000  Level Indianapolis Center
12:43 38.0111 -83.9719 332° Northwest 432 497 24,000  Level Indianapolis Center
12:44 38.1194 -84.0411 333° Northwest 435 501 24,000  Level Indianapolis Center
12:45 38.2272 -84.1133 332° Northwest 436 502 24,000  Level Indianapolis Center
12:46 38.3522 -84.1969 332° Northwest 434 499 24,000  Level Indianapolis Center
12:48 38.4597 -84.2703 332° Northwest 436 502 24,000  Level Indianapolis Center
12:49 38.5683 -84.3431 332° Northwest 439 505 24,000  Level Indianapolis Center
12:50 38.6747 -84.4142 332° Northwest 436 502 24,000  Level Indianapolis Center
12:51 38.7850 -84.4883 332° Northwest 441 507 24,000  Level Indianapolis Center
12:52 38.8889 -84.5611 331° Northwest 432 497 24,000  Level Indianapolis Center
12:53 38.9994 -84.6344 333° Northwest 436 502 24,000  Level Indianapolis Center
12:54 39.1075 -84.7078 332° Northwest 433 498 24,000  Level Indianapolis Center
12:55 39.2158 -84.7828 332° Northwest 436 502 24,000  Level Indianapolis Center
12:56 39.3239 -84.8581 332° Northwest 437 503 24,000  Level Indianapolis Center
12:57 39.4486 -84.9439 332° Northwest 431 496 24,000  Level Indianapolis Center
12:58 39.5567 -85.0183 332° Northwest 435 501 24,000  Level Indianapolis Center
12:59 39.6647 -85.0928 332° Northwest 435 501 24,000  Level Indianapolis Center
13:00 39.7714 -85.1683 331° Northwest 431 496 24,000  Level Indianapolis Center
13:01 39.8806 -85.2447 332° Northwest 437 503 24,000  Level Indianapolis Center
13:02 39.9881 -85.3206 332° Northwest 435 501 24,000  Level Indianapolis Center
13:03 40.0956 -85.3964 332° Northwest 435 501 24,000  Level Indianapolis Center
13:04 40.2028 -85.4719 332° Northwest 434 499 24,000  Level Indianapolis Center
13:05 40.3086 -85.5472 332° Northwest 430 495 24,000  Level Indianapolis Center
13:06 40.4156 -85.6242 331° Northwest 432 497 24,000 -120 Level Indianapolis Center
13:07 40.5272 -85.6886 336° Northwest 434 499 23,800 -540 Descending Indianapolis Center
13:08 40.6500 -85.7453 341° North 404 465 23,000 -420 Descending Indianapolis Center
13:09 40.7397 -85.7847 342° North 379 436 23,000  Level Chicago Center
13:10 40.8478 -85.8806 326° Northwest 397 457 23,000 -480 Level Chicago Center
13:11 40.9269 -85.9828 316° Northwest 398 458 22,100 -1,080 Descending Chicago Center
13:12 41.0053 -86.0839 316° Northwest 394 453 20,900 -1,140 Descending Chicago Center
13:13 41.0822 -86.1844 315° West 389 448 19,800 -1,140 Descending Chicago Center
13:14 41.1583 -86.2850 315° West 385 443 18,600 -1,080 Descending Chicago Center
13:15 41.2336 -86.3836 315° West 381 438 17,700 -1,080 Descending Chicago Center
13:16 41.3086 -86.4808 316° Northwest 377 434 16,500 -1,140 Descending Chicago Center
13:17 41.3811 -86.5778 315° West 371 427 15,400 -1,200 Descending Chicago Center
13:18 41.4667 -86.6903 315° West 360 414 14,100 -1,200 Descending Chicago Center
13:19 41.5386 -86.7753 319° Northwest 340 391 13,000 -1,080 Descending Chicago Center
13:20 41.6400 -86.7936 352° North 365 420 12,000 -540 Descending Chicago Center
13:22 41.7400 -86.8042 355° North 364 419 12,000  Level Chicago Center
13:23 41.8378 -86.8239 351° North 361 415 12,000  Level Chicago Center
13:24 41.9136 -86.8847 329° Northwest 329 379 12,000 -480 Level Chicago Center
13:25 41.9600 -86.9833 302° West 310 357 11,100 -1,020 Descending Chicago Center
13:26 41.9878 -87.0917 289° West 271 312 9,900 -1,080 Descending Chicago Center
13:27 41.9792 -87.1844 263° West 253 291 8,900 -1,020 Descending Chicago Center
13:28 41.9847 -87.2764 275° West 249 287 7,900 -960 Descending Chicago Center
13:29 41.9828 -87.3678 268° West 246 283 7,000 -660 Descending Chicago Center
13:29 41.9833 -87.4167 271° West 243 280 7,000 -120 Level Chicago TRACON
13:30 41.9833 -87.5000 270° West 227 261 6,900 -780 Descending Chicago TRACON
13:31 41.9833 -87.5667 270° West 210 242 5,600 -1,380 Descending Chicago TRACON
13:32 41.9833 -87.6500 270° West 206 237 4,300 -1,200 Descending Chicago TRACON
13:33 41.9833 -87.7167 270° West 186 214 3,100 -1,020 Descending Chicago TRACON
13:34 41.9833 -87.7833 270° West 152 175 2,200 -780 Descending Chicago TRACON
13:35 41.9833 -87.8333 270° West 140 161 1,600 -600 Descending Chicago TRACON
13:38 41.9667 -87.9000 270° West  Level FlightAware Approximate